createdAt,value
2023-05-01T00:00:31.651Z,3.05
2023-05-01T00:01:31.843Z,3.05
2023-05-01T00:02:31.955Z,3.07
2023-05-01T00:03:32.098Z,3.08
2023-05-01T00:04:31.663Z,3.13
2023-05-01T00:05:31.920Z,3.10
2023-05-01T00:06:31.405Z,3.16
2023-05-01T00:07:32.106Z,3.10
2023-05-01T00:08:31.913Z,3.13
2023-05-01T00:09:32.111Z,3.08
2023-05-01T00:10:31.268Z,3.07
2023-05-01T00:11:32.005Z,3.05
2023-05-01T00:12:31.861Z,3.02
2023-05-01T00:13:31.960Z,2.99
2023-05-01T00:14:31.119Z,2.95
2023-05-01T00:15:32.022Z,2.92
2023-05-01T00:16:32.019Z,2.90
2023-05-01T00:17:31.359Z,2.84
2023-05-01T00:18:32.000Z,2.81
2023-05-01T00:19:31.891Z,2.80
2023-05-01T00:20:31.234Z,2.76
2023-05-01T00:21:31.977Z,2.73
2023-05-01T00:22:31.893Z,2.73
2023-05-01T00:23:32.076Z,2.69
2023-05-01T00:24:31.927Z,2.65
2023-05-01T00:25:31.008Z,2.62
2023-05-01T00:26:31.153Z,2.62
2023-05-01T00:27:31.888Z,2.62
2023-05-01T00:28:31.809Z,2.61
2023-05-01T00:29:30.941Z,2.61
2023-05-01T00:30:30.977Z,2.66
2023-05-01T00:31:31.074Z,2.65
2023-05-01T00:32:31.112Z,2.62
2023-05-01T00:33:31.109Z,2.63
2023-05-01T00:34:31.152Z,2.61
2023-05-01T00:35:31.227Z,2.62
2023-05-01T00:36:30.956Z,2.59
2023-05-01T00:37:31.215Z,2.59
2023-05-01T00:38:31.309Z,2.55
2023-05-01T00:39:31.410Z,2.53
2023-05-01T00:40:31.262Z,2.51
2023-05-01T00:41:31.007Z,2.45
2023-05-01T00:42:30.835Z,2.44
2023-05-01T00:43:31.500Z,2.43
2023-05-01T00:44:31.702Z,2.43
2023-05-01T00:45:31.505Z,2.38
2023-05-01T00:46:31.636Z,2.33
2023-05-01T00:47:30.973Z,2.36
2023-05-01T00:48:30.731Z,2.37
2023-05-01T00:49:30.818Z,2.30
2023-05-01T00:50:30.740Z,2.33
2023-05-01T00:51:30.932Z,2.30
2023-05-01T00:52:30.804Z,2.37
2023-05-01T00:53:30.832Z,2.41
2023-05-01T00:54:30.683Z,2.41
2023-05-01T00:55:31.527Z,2.40
2023-05-01T00:56:31.429Z,2.44
2023-05-01T00:57:31.336Z,2.41
2023-05-01T00:58:31.502Z,2.44
2023-05-01T00:59:31.391Z,2.43
2023-05-01T01:00:30.599Z,2.44
2023-05-01T01:01:30.751Z,2.47
2023-05-01T01:02:31.545Z,2.44
2023-05-01T01:03:30.513Z,2.41
2023-05-01T01:04:30.906Z,2.47
2023-05-01T01:05:31.331Z,2.50
2023-05-01T01:06:30.556Z,2.55
2023-05-01T01:07:30.446Z,2.59
2023-05-01T01:08:32.531Z,2.63
2023-05-01T01:09:30.469Z,2.63
2023-05-01T01:10:31.352Z,2.66
2023-05-01T01:11:30.566Z,2.71
2023-05-01T01:12:30.601Z,2.74
2023-05-01T01:13:30.705Z,2.73
2023-05-01T01:14:30.357Z,2.73
2023-05-01T01:15:30.692Z,2.69
2023-05-01T01:16:30.586Z,2.69
2023-05-01T01:17:31.095Z,2.68
2023-05-01T01:18:30.835Z,2.61
2023-05-01T01:19:30.876Z,2.59
2023-05-01T01:20:30.960Z,2.59
2023-05-01T01:21:30.950Z,2.55
2023-05-01T01:22:30.475Z,2.48
2023-05-01T01:23:30.369Z,2.50
2023-05-01T01:24:30.315Z,2.48
2023-05-01T01:25:30.959Z,2.44
2023-05-01T01:26:30.828Z,2.38
2023-05-01T01:27:31.195Z,2.36
2023-05-01T01:28:31.304Z,2.30
2023-05-01T01:29:30.831Z,2.27
2023-05-01T01:30:30.971Z,2.32
2023-05-01T01:31:30.466Z,2.29
2023-05-01T01:32:31.080Z,2.25
2023-05-01T01:33:30.696Z,2.26
2023-05-01T01:34:30.114Z,2.22
2023-05-01T01:35:31.028Z,2.20
2023-05-01T01:36:30.905Z,2.20
2023-05-01T01:37:30.639Z,2.22
2023-05-01T01:38:30.973Z,2.20
2023-05-01T01:39:30.866Z,2.15
2023-05-01T01:40:31.029Z,2.15
2023-05-01T01:42:40.272Z,2.14
2023-05-01T01:43:40.134Z,2.12
2023-05-01T01:44:40.138Z,2.12
2023-05-01T01:45:40.227Z,2.11
2023-05-01T01:46:40.266Z,2.11
2023-05-01T01:47:40.144Z,2.14
2023-05-01T01:48:40.126Z,2.18
2023-05-01T01:49:40.129Z,2.22
2023-05-01T01:50:40.729Z,2.26
2023-05-01T01:51:41.161Z,2.22
2023-05-01T01:52:40.052Z,2.26
2023-05-01T01:53:40.038Z,2.25
2023-05-01T01:54:40.006Z,2.27
2023-05-01T01:55:40.004Z,2.32
2023-05-01T01:56:40.016Z,2.30
2023-05-01T01:57:40.044Z,2.33
2023-05-01T01:58:39.964Z,2.37
2023-05-01T01:59:40.049Z,2.32
2023-05-01T02:00:39.991Z,2.36
2023-05-01T02:01:40.034Z,2.36
2023-05-01T02:02:40.161Z,2.38
2023-05-01T02:03:40.078Z,2.38
2023-05-01T02:04:39.901Z,2.41
2023-05-01T02:05:39.879Z,2.48
2023-05-01T02:06:40.084Z,2.50
2023-05-01T02:07:39.967Z,2.53
2023-05-01T02:08:39.843Z,2.53
2023-05-01T02:09:39.994Z,2.53
2023-05-01T02:10:39.817Z,2.53
2023-05-01T02:11:39.874Z,2.51
2023-05-01T02:12:39.789Z,2.50
2023-05-01T02:13:39.783Z,2.45
2023-05-01T02:14:39.758Z,2.47
2023-05-01T02:15:39.804Z,2.44
2023-05-01T02:16:39.835Z,2.41
2023-05-01T02:17:39.732Z,2.38
2023-05-01T02:18:39.703Z,2.37
2023-05-01T02:19:39.698Z,2.41
2023-05-01T02:20:39.686Z,2.33
2023-05-01T02:21:39.702Z,2.36
2023-05-01T02:22:39.652Z,2.32
2023-05-01T02:23:39.651Z,2.30
2023-05-01T02:24:39.618Z,2.29
2023-05-01T02:25:39.636Z,2.29
2023-05-01T02:26:39.644Z,2.29
2023-05-01T02:27:39.596Z,2.30
2023-05-01T02:28:39.579Z,2.26
2023-05-01T02:29:39.580Z,2.26
2023-05-01T02:30:39.549Z,2.26
2023-05-01T02:31:39.606Z,2.25
2023-05-01T02:32:39.547Z,2.23
2023-05-01T02:33:39.561Z,2.14
2023-05-01T02:34:39.503Z,2.11
2023-05-01T02:35:39.500Z,2.09
2023-05-01T02:36:39.513Z,2.07
2023-05-01T02:37:39.484Z,2.02
2023-05-01T02:38:39.457Z,2.00
2023-05-01T02:39:39.448Z,2.00
2023-05-01T02:40:39.467Z,1.98
2023-05-01T02:41:39.423Z,1.93
2023-05-01T02:42:39.417Z,1.93
2023-05-01T02:43:39.433Z,1.86
2023-05-01T02:44:39.384Z,1.88
2023-05-01T02:45:39.417Z,1.85
2023-05-01T02:46:39.383Z,1.82
2023-05-01T02:47:39.392Z,1.82
2023-05-01T02:48:39.360Z,1.86
2023-05-01T02:49:39.314Z,1.88
2023-05-01T02:50:39.300Z,1.92
2023-05-01T02:51:39.316Z,1.93
2023-05-01T02:52:39.294Z,2.00
2023-05-01T02:53:40.020Z,2.01
2023-05-01T02:54:39.282Z,2.02
2023-05-01T02:55:39.247Z,2.05
2023-05-01T02:56:39.271Z,2.07
2023-05-01T02:57:39.220Z,2.09
2023-05-01T02:58:39.214Z,2.11
2023-05-01T02:59:39.194Z,2.15
2023-05-01T03:00:39.183Z,2.15
2023-05-01T03:01:39.274Z,2.15
2023-05-01T03:02:39.211Z,2.15
2023-05-01T03:03:39.137Z,2.18
2023-05-01T03:04:39.210Z,2.14
2023-05-01T03:05:39.107Z,2.14
2023-05-01T03:06:39.259Z,2.14
2023-05-01T03:07:39.077Z,2.14
2023-05-01T03:08:39.072Z,2.09
2023-05-01T03:09:39.059Z,2.12
2023-05-01T03:10:39.049Z,2.08
2023-05-01T03:11:39.132Z,2.09
2023-05-01T03:12:39.020Z,2.11
2023-05-01T03:13:39.031Z,2.09
2023-05-01T03:14:39.008Z,2.09
2023-05-01T03:15:39.020Z,2.09
2023-05-01T03:16:39.301Z,2.05
2023-05-01T03:17:39.002Z,2.01
2023-05-01T03:18:38.976Z,2.00
2023-05-01T03:19:39.115Z,1.95
2023-05-01T03:20:39.792Z,1.93
2023-05-01T03:21:38.902Z,1.89
2023-05-01T03:22:38.840Z,1.89
2023-05-01T03:23:38.833Z,1.83
2023-05-01T03:24:38.825Z,1.83
2023-05-01T03:25:38.790Z,1.85
2023-05-01T03:26:38.950Z,1.82
2023-05-01T03:27:38.790Z,1.82
2023-05-01T03:28:38.769Z,1.82
2023-05-01T03:29:38.751Z,1.82
2023-05-01T03:30:38.731Z,1.86
2023-05-01T03:31:38.837Z,1.88
2023-05-01T03:32:38.849Z,1.88
2023-05-01T03:33:38.701Z,1.86
2023-05-01T03:34:38.694Z,1.86
2023-05-01T03:35:38.742Z,1.89
2023-05-01T03:36:38.692Z,1.89
2023-05-01T03:37:38.639Z,1.89
2023-05-01T03:38:38.626Z,1.92
2023-05-01T03:39:38.625Z,1.92
2023-05-01T03:40:38.613Z,1.92
2023-05-01T03:41:38.612Z,1.90
2023-05-01T03:42:38.636Z,1.89
2023-05-01T03:43:38.580Z,1.90
2023-05-01T03:44:38.563Z,1.89
2023-05-01T03:45:38.571Z,1.88
2023-05-01T03:46:38.640Z,1.90
2023-05-01T03:47:38.562Z,1.95
2023-05-01T03:48:38.521Z,2.00
2023-05-01T03:49:38.527Z,2.01
2023-05-01T03:50:38.514Z,2.02
2023-05-01T03:51:38.483Z,2.04
2023-05-01T03:52:38.460Z,2.05
2023-05-01T03:53:38.446Z,2.07
2023-05-01T03:54:38.426Z,2.12
2023-05-01T03:55:38.457Z,2.19
2023-05-01T03:56:38.404Z,2.26
2023-05-01T03:57:38.384Z,2.36
2023-05-01T03:58:38.409Z,2.44
2023-05-01T03:59:39.314Z,2.50
2023-05-01T04:00:38.360Z,2.58
2023-05-01T04:01:38.406Z,2.62
2023-05-01T04:02:38.417Z,2.63
2023-05-01T04:03:38.534Z,2.66
2023-05-01T04:04:38.460Z,2.73
2023-05-01T04:05:38.303Z,2.73
2023-05-01T04:06:38.376Z,2.73
2023-05-01T04:07:38.282Z,2.77
2023-05-01T04:08:38.267Z,2.77
2023-05-01T04:09:38.226Z,2.79
2023-05-01T04:10:38.224Z,2.83
2023-05-01T04:11:38.240Z,2.83
2023-05-01T04:12:38.225Z,2.81
2023-05-01T04:13:38.207Z,2.81
2023-05-01T04:14:38.192Z,2.84
2023-05-01T04:15:38.227Z,2.86
2023-05-01T04:16:38.240Z,2.86
2023-05-01T04:17:38.164Z,2.90
2023-05-01T04:18:38.126Z,2.90
2023-05-01T04:19:38.114Z,2.95
2023-05-01T04:20:38.116Z,2.90
2023-05-01T04:21:38.126Z,2.97
2023-05-01T04:22:38.117Z,3.01
2023-05-01T04:23:38.145Z,3.05
2023-05-01T04:24:38.047Z,3.05
2023-05-01T04:25:38.033Z,3.08
2023-05-01T04:26:38.224Z,3.07
2023-05-01T04:27:38.006Z,3.12
2023-05-01T04:28:38.013Z,3.15
2023-05-01T04:29:37.997Z,3.15
2023-05-01T04:30:37.980Z,3.16
2023-05-01T04:31:38.009Z,3.19
2023-05-01T04:32:37.962Z,3.22
2023-05-01T04:33:38.042Z,3.25
2023-05-01T04:34:40.921Z,3.26
2023-05-01T04:35:37.932Z,3.26
2023-05-01T04:36:37.934Z,3.30
2023-05-01T04:37:37.885Z,3.28
2023-05-01T04:38:37.873Z,3.30
2023-05-01T04:39:37.874Z,3.31
2023-05-01T04:40:37.856Z,3.34
2023-05-01T04:41:37.882Z,3.37
2023-05-01T04:42:38.009Z,3.35
2023-05-01T04:43:37.812Z,3.39
2023-05-01T04:44:37.794Z,3.39
2023-05-01T04:45:37.913Z,3.45
2023-05-01T04:46:37.872Z,3.45
2023-05-01T04:47:37.844Z,3.46
2023-05-01T04:48:37.833Z,3.50
2023-05-01T04:49:37.736Z,3.52
2023-05-01T04:50:37.753Z,3.57
2023-05-01T04:51:37.730Z,3.59
2023-05-01T04:52:37.817Z,3.64
2023-05-01T04:53:37.901Z,3.68
2023-05-01T04:54:37.861Z,3.74
2023-05-01T04:55:37.889Z,3.74
2023-05-01T04:56:37.701Z,3.81
2023-05-01T04:57:37.648Z,3.84
2023-05-01T04:58:37.626Z,3.89
2023-05-01T04:59:37.878Z,3.95
2023-05-01T05:00:37.969Z,3.99
2023-05-01T05:01:38.335Z,4.02
2023-05-01T05:02:37.679Z,4.08
2023-05-01T05:03:37.744Z,4.11
2023-05-01T05:04:37.683Z,4.13
2023-05-01T05:05:37.527Z,4.18
2023-05-01T05:06:37.658Z,4.24
2023-05-01T05:07:37.487Z,4.26
2023-05-01T05:08:37.501Z,4.32
2023-05-01T05:09:37.484Z,4.36
2023-05-01T05:10:37.477Z,4.44
2023-05-01T05:11:37.497Z,4.47
2023-05-01T05:12:37.438Z,4.53
2023-05-01T05:13:37.421Z,4.59
2023-05-01T05:14:37.421Z,4.65
2023-05-01T05:15:37.395Z,4.75
2023-05-01T05:16:37.489Z,4.80
2023-05-01T05:17:37.432Z,4.91
2023-05-01T05:18:37.379Z,4.99
2023-05-01T05:19:37.360Z,5.02
2023-05-01T05:20:37.514Z,5.09
2023-05-01T05:21:37.362Z,5.17
2023-05-01T05:22:37.318Z,5.22
2023-05-01T05:23:37.296Z,5.33
2023-05-01T05:24:37.305Z,5.38
2023-05-01T05:25:37.263Z,5.47
2023-05-01T05:26:37.299Z,5.52
2023-05-01T05:27:37.242Z,5.56
2023-05-01T05:28:37.236Z,5.73
2023-05-01T05:29:37.236Z,5.75
2023-05-01T05:30:37.212Z,5.83
2023-05-01T05:31:37.269Z,5.84
2023-05-01T05:32:37.202Z,5.96
2023-05-01T05:33:37.154Z,6.01
2023-05-01T05:34:37.159Z,6.17
2023-05-01T05:35:37.131Z,6.21
2023-05-01T05:36:37.194Z,6.28
2023-05-01T05:37:37.126Z,6.39
2023-05-01T05:38:37.106Z,6.58
2023-05-01T05:39:37.089Z,6.63
2023-05-01T05:40:37.093Z,6.79
2023-05-01T05:41:37.099Z,6.90
2023-05-01T05:42:37.070Z,6.97
2023-05-01T05:43:37.037Z,7.09
2023-05-01T05:44:37.029Z,7.18
2023-05-01T05:45:37.081Z,7.30
2023-05-01T05:46:37.079Z,7.42
2023-05-01T05:47:37.065Z,7.47
2023-05-01T05:48:36.973Z,7.67
2023-05-01T05:49:36.965Z,7.71
2023-05-01T05:50:36.963Z,7.86
2023-05-01T05:51:36.956Z,7.94
2023-05-01T05:52:36.933Z,8.04
2023-05-01T05:53:36.923Z,8.13
2023-05-01T05:54:36.911Z,8.21
2023-05-01T05:55:36.887Z,8.28
2023-05-01T05:56:36.908Z,8.34
2023-05-01T05:57:36.858Z,8.47
2023-05-01T05:58:36.850Z,8.50
2023-05-01T05:59:36.846Z,8.47
2023-05-01T06:00:36.843Z,8.52
2023-05-01T06:01:36.821Z,8.55
2023-05-01T06:02:36.984Z,8.64
2023-05-01T06:03:36.848Z,8.67
2023-05-01T06:04:36.772Z,8.76
2023-05-01T06:05:36.779Z,8.73
2023-05-01T06:06:36.863Z,8.80
2023-05-01T06:07:36.731Z,8.88
2023-05-01T06:08:36.714Z,8.94
2023-05-01T06:09:36.714Z,8.93
2023-05-01T06:10:36.730Z,8.89
2023-05-01T06:11:36.706Z,8.93
2023-05-01T06:12:39.331Z,8.93
2023-05-01T06:13:37.652Z,8.91
2023-05-01T06:14:36.633Z,8.93
2023-05-01T06:15:36.670Z,8.94
2023-05-01T06:16:36.705Z,8.94
2023-05-01T06:17:36.611Z,8.96
2023-05-01T06:18:36.598Z,8.89
2023-05-01T06:19:36.575Z,8.93
2023-05-01T06:20:36.583Z,8.89
2023-05-01T06:21:36.573Z,8.93
2023-05-01T06:22:36.552Z,8.97
2023-05-01T06:23:36.537Z,8.98
2023-05-01T06:24:36.526Z,9.08
2023-05-01T06:25:36.519Z,9.16
2023-05-01T06:26:36.538Z,9.12
2023-05-01T06:27:36.461Z,9.12
2023-05-01T06:28:36.462Z,9.17
2023-05-01T06:29:36.444Z,9.23
2023-05-01T06:30:36.445Z,9.34
2023-05-01T06:31:36.481Z,9.53
2023-05-01T06:32:36.474Z,9.83
2023-05-01T06:33:36.384Z,10.04
2023-05-01T06:34:36.398Z,10.25
2023-05-01T06:35:36.358Z,10.42
2023-05-01T06:36:36.392Z,10.57
2023-05-01T06:37:36.347Z,10.76
2023-05-01T06:38:36.337Z,10.95
2023-05-01T06:39:36.319Z,11.06
2023-05-01T06:40:36.319Z,11.09
2023-05-01T06:41:36.345Z,11.16
2023-05-01T06:42:36.271Z,11.24
2023-05-01T06:43:36.265Z,11.30
2023-05-01T06:44:36.256Z,11.53
2023-05-01T06:45:36.230Z,11.63
2023-05-01T06:46:36.309Z,11.57
2023-05-01T06:47:36.203Z,11.62
2023-05-01T06:48:36.209Z,11.72
2023-05-01T06:49:36.181Z,11.81
2023-05-01T06:50:36.191Z,11.87
2023-05-01T06:51:36.187Z,11.88
2023-05-01T06:52:36.148Z,11.85
2023-05-01T06:53:36.203Z,11.82
2023-05-01T06:54:36.123Z,11.88
2023-05-01T06:55:36.106Z,11.87
2023-05-01T06:56:36.118Z,11.84
2023-05-01T06:57:36.109Z,11.70
2023-05-01T06:58:36.056Z,11.67
2023-05-01T06:59:36.058Z,11.66
2023-05-01T07:00:36.085Z,11.57
2023-05-01T07:01:36.089Z,11.56
2023-05-01T07:02:36.041Z,11.69
2023-05-01T07:03:36.811Z,11.74
2023-05-01T07:04:36.009Z,11.96
2023-05-01T07:05:35.970Z,12.05
2023-05-01T07:06:36.005Z,12.25
2023-05-01T07:07:36.583Z,12.31
2023-05-01T07:08:35.937Z,12.40
2023-05-01T07:09:35.929Z,12.49
2023-05-01T07:10:35.917Z,12.43
2023-05-01T07:11:35.901Z,12.36
2023-05-01T07:12:35.909Z,12.31
2023-05-01T07:13:35.872Z,12.43
2023-05-01T07:14:35.956Z,12.19
2023-05-01T07:15:36.795Z,12.18
2023-05-01T07:16:35.877Z,12.30
2023-05-01T07:17:35.931Z,12.33
2023-05-01T07:18:35.797Z,12.37
2023-05-01T07:19:35.789Z,12.33
2023-05-01T07:20:35.795Z,12.22
2023-05-01T07:21:35.785Z,12.23
2023-05-01T07:22:35.772Z,12.36
2023-05-01T07:23:35.762Z,12.33
2023-05-01T07:24:35.740Z,12.43
2023-05-01T07:25:35.709Z,12.52
2023-05-01T07:26:35.713Z,12.66
2023-05-01T07:27:35.729Z,12.58
2023-05-01T07:28:35.667Z,12.56
2023-05-01T07:29:35.669Z,12.55
2023-05-01T07:30:35.667Z,12.44
2023-05-01T07:31:35.684Z,12.31
2023-05-01T07:32:35.692Z,12.41
2023-05-01T07:33:35.612Z,12.69
2023-05-01T07:34:35.600Z,12.99
2023-05-01T07:35:35.600Z,13.17
2023-05-01T07:36:35.579Z,12.98
2023-05-01T07:37:35.590Z,12.80
2023-05-01T07:38:35.542Z,12.88
2023-05-01T07:39:35.537Z,12.91
2023-05-01T07:40:35.534Z,13.10
2023-05-01T07:41:35.501Z,13.16
2023-05-01T07:42:35.517Z,13.25
2023-05-01T07:43:35.504Z,13.51
2023-05-01T07:44:35.474Z,13.69
2023-05-01T07:45:35.495Z,13.73
2023-05-01T07:46:35.482Z,13.86
2023-05-01T07:47:35.533Z,14.20
2023-05-01T07:48:36.939Z,14.63
2023-05-01T07:49:35.409Z,14.94
2023-05-01T07:50:35.395Z,15.12
2023-05-01T07:51:35.433Z,15.64
2023-05-01T07:52:35.396Z,15.85
2023-05-01T07:53:35.349Z,15.73
2023-05-01T07:54:35.353Z,15.64
2023-05-01T07:55:35.332Z,15.34
2023-05-01T07:56:35.311Z,15.18
2023-05-01T07:57:35.324Z,14.91
2023-05-01T07:58:35.277Z,14.93
2023-05-01T07:59:35.268Z,15.16
2023-05-01T08:00:35.260Z,15.43
2023-05-01T08:01:35.246Z,15.46
2023-05-01T08:02:35.359Z,15.33
2023-05-01T08:03:35.255Z,15.31
2023-05-01T08:04:35.293Z,15.18
2023-05-01T08:05:35.187Z,14.98
2023-05-01T08:06:35.245Z,15.07
2023-05-01T08:07:35.194Z,15.07
2023-05-01T08:08:35.146Z,15.19
2023-05-01T08:09:35.132Z,14.93
2023-05-01T08:10:35.350Z,15.05
2023-05-01T08:11:35.297Z,15.18
2023-05-01T08:12:35.276Z,15.18
2023-05-01T08:13:35.096Z,15.27
2023-05-01T08:14:35.072Z,15.48
2023-05-01T08:15:35.134Z,15.43
2023-05-01T08:16:35.076Z,15.44
2023-05-01T08:17:35.125Z,15.27
2023-05-01T08:18:35.023Z,15.04
2023-05-01T08:19:35.017Z,14.94
2023-05-01T08:20:35.000Z,14.94
2023-05-01T08:21:35.082Z,15.20
2023-05-01T08:22:34.959Z,15.22
2023-05-01T08:23:34.949Z,15.09
2023-05-01T08:24:34.953Z,15.15
2023-05-01T08:25:34.936Z,15.03
2023-05-01T08:26:34.951Z,15.03
2023-05-01T08:27:34.902Z,15.33
2023-05-01T08:28:34.895Z,15.68
2023-05-01T08:29:34.883Z,15.98
2023-05-01T08:30:34.954Z,16.30
2023-05-01T08:31:34.951Z,16.42
2023-05-01T08:32:34.906Z,16.75
2023-05-01T08:33:34.824Z,17.03
2023-05-01T08:34:34.815Z,16.88
2023-05-01T08:35:34.798Z,17.03
2023-05-01T08:36:34.816Z,17.00
2023-05-01T08:37:34.771Z,16.72
2023-05-01T08:38:34.752Z,16.67
2023-05-01T08:39:34.757Z,16.78
2023-05-01T08:40:34.732Z,16.59
2023-05-01T08:41:34.752Z,16.48
2023-05-01T08:42:34.724Z,16.51
2023-05-01T08:43:34.773Z,16.57
2023-05-01T08:44:34.684Z,16.62
2023-05-01T08:45:34.678Z,16.57
2023-05-01T08:46:34.766Z,16.57
2023-05-01T08:47:34.656Z,16.23
2023-05-01T08:48:34.629Z,15.84
2023-05-01T08:49:34.623Z,15.76
2023-05-01T08:50:34.598Z,15.55
2023-05-01T08:51:34.628Z,15.49
2023-05-01T08:52:34.587Z,15.23
2023-05-01T08:53:34.571Z,15.11
2023-05-01T08:54:34.549Z,15.12
2023-05-01T08:55:34.567Z,15.18
2023-05-01T08:56:34.550Z,15.35
2023-05-01T08:57:34.522Z,15.49
2023-05-01T08:58:34.497Z,15.73
2023-05-01T08:59:34.495Z,16.06
2023-05-01T09:00:34.467Z,16.34
2023-05-01T09:01:34.547Z,16.69
2023-05-01T09:02:34.490Z,17.07
2023-05-01T09:03:34.508Z,17.28
2023-05-01T09:04:34.435Z,17.58
2023-05-01T09:05:34.418Z,17.84
2023-05-01T09:06:34.556Z,17.96
2023-05-01T09:07:34.394Z,18.05
2023-05-01T09:08:34.354Z,17.98
2023-05-01T09:09:34.349Z,17.94
2023-05-01T09:10:34.581Z,17.86
2023-05-01T09:11:34.353Z,17.77
2023-05-01T09:12:34.311Z,17.76
2023-05-01T09:13:34.302Z,17.30
2023-05-01T09:14:34.283Z,17.09
2023-05-01T09:15:34.270Z,16.98
2023-05-01T09:16:34.343Z,16.78
2023-05-01T09:17:34.352Z,16.77
2023-05-01T09:18:34.398Z,16.80
2023-05-01T09:19:34.225Z,16.77
2023-05-01T09:20:34.345Z,17.18
2023-05-01T09:21:34.310Z,17.54
2023-05-01T09:22:34.180Z,17.86
2023-05-01T09:23:34.346Z,18.17
2023-05-01T09:24:34.248Z,18.49
2023-05-01T09:25:34.432Z,18.66
2023-05-01T09:26:34.147Z,18.74
2023-05-01T09:27:34.156Z,18.87
2023-05-01T09:28:34.327Z,19.09
2023-05-01T09:29:34.094Z,19.13
2023-05-01T09:30:34.083Z,18.94
2023-05-01T09:31:34.320Z,18.82
2023-05-01T09:32:34.362Z,18.78
2023-05-01T09:33:34.150Z,18.82
2023-05-01T09:34:34.025Z,19.06
2023-05-01T09:35:34.036Z,19.05
2023-05-01T09:36:34.030Z,18.74
2023-05-01T09:37:34.047Z,18.59
2023-05-01T09:38:33.974Z,18.47
2023-05-01T09:39:33.962Z,18.74
2023-05-01T09:40:33.974Z,18.87
2023-05-01T09:41:34.031Z,19.10
2023-05-01T09:42:33.923Z,19.40
2023-05-01T09:43:33.934Z,19.79
2023-05-01T09:44:33.917Z,19.78
2023-05-01T09:45:34.008Z,19.55
2023-05-01T09:46:34.097Z,19.47
2023-05-01T09:47:33.983Z,19.50
2023-05-01T09:48:35.673Z,19.34
2023-05-01T09:49:33.855Z,19.47
2023-05-01T09:50:33.957Z,19.72
2023-05-01T09:51:33.818Z,19.75
2023-05-01T09:52:33.969Z,19.89
2023-05-01T09:53:33.959Z,20.17
2023-05-01T09:54:33.772Z,20.15
2023-05-01T09:55:33.776Z,19.86
2023-05-01T09:56:33.900Z,20.01
2023-05-01T09:57:33.841Z,20.00
2023-05-01T09:58:33.718Z,19.71
2023-05-01T09:59:33.783Z,19.47
2023-05-01T10:00:33.707Z,19.53
2023-05-01T10:01:33.755Z,19.70
2023-05-01T10:02:33.810Z,19.60
2023-05-01T10:03:33.698Z,19.71
2023-05-01T10:04:33.670Z,19.71
2023-05-01T10:05:33.640Z,19.65
2023-05-01T10:06:33.648Z,19.82
2023-05-01T10:07:33.645Z,20.10
2023-05-01T10:08:33.684Z,20.38
2023-05-01T10:09:33.592Z,20.50
2023-05-01T10:10:33.580Z,20.51
2023-05-01T10:11:33.649Z,20.57
2023-05-01T10:12:33.573Z,20.61
2023-05-01T10:13:33.542Z,20.50
2023-05-01T10:14:33.523Z,20.44
2023-05-01T10:15:33.525Z,20.37
2023-05-01T10:16:33.512Z,20.35
2023-05-01T10:17:33.730Z,20.78
2023-05-01T10:18:33.485Z,20.94
2023-05-01T10:19:33.726Z,21.13
2023-05-01T10:20:33.450Z,21.59
2023-05-01T10:21:33.586Z,21.81
2023-05-01T10:22:33.442Z,21.91
2023-05-01T10:23:33.649Z,22.09
2023-05-01T10:24:33.407Z,22.20
2023-05-01T10:25:33.395Z,22.29
2023-05-01T10:26:33.402Z,22.23
2023-05-01T10:27:33.384Z,22.12
2023-05-01T10:28:33.348Z,22.52
2023-05-01T10:29:33.333Z,22.63
2023-05-01T10:30:33.420Z,22.33
2023-05-01T10:31:33.563Z,22.20
2023-05-01T10:32:33.324Z,22.30
2023-05-01T10:33:33.309Z,22.36
2023-05-01T10:34:33.406Z,22.45
2023-05-01T10:35:33.469Z,22.64
2023-05-01T10:36:33.353Z,22.79
2023-05-01T10:37:33.550Z,23.14
2023-05-01T10:38:33.215Z,23.32
2023-05-01T10:39:33.330Z,23.50
2023-05-01T10:40:33.336Z,23.47
2023-05-01T10:41:33.173Z,23.62
2023-05-01T10:42:33.182Z,23.68
2023-05-01T10:43:33.421Z,23.69
2023-05-01T10:44:33.203Z,23.63
2023-05-01T10:45:33.950Z,23.31
2023-05-01T10:46:33.416Z,23.22
2023-05-01T10:47:33.419Z,23.11
2023-05-01T10:48:33.228Z,23.03
2023-05-01T10:49:33.072Z,22.67
2023-05-01T10:50:33.052Z,22.54
2023-05-01T10:51:33.046Z,22.60
2023-05-01T10:52:33.044Z,22.75
2023-05-01T10:53:33.042Z,22.84
2023-05-01T10:54:33.944Z,22.97
2023-05-01T10:55:32.989Z,23.07
2023-05-01T10:56:32.983Z,23.31
2023-05-01T10:57:33.027Z,23.49
2023-05-01T10:58:33.783Z,23.25
2023-05-01T10:59:32.940Z,23.34
2023-05-01T11:00:32.930Z,23.72
2023-05-01T11:01:33.054Z,24.02
2023-05-01T11:02:32.951Z,24.00
2023-05-01T11:03:32.890Z,23.72
2023-05-01T11:04:32.903Z,23.38
2023-05-01T11:05:38.472Z,23.07
2023-05-01T11:06:34.180Z,22.88
2023-05-01T11:07:32.895Z,22.61
2023-05-01T11:08:32.913Z,22.26
2023-05-01T11:09:33.087Z,21.93
2023-05-01T11:10:33.014Z,21.96
2023-05-01T11:11:32.879Z,22.38
2023-05-01T11:12:32.805Z,22.79
2023-05-01T11:13:32.998Z,23.37
2023-05-01T11:14:32.745Z,23.72
2023-05-01T11:15:37.121Z,24.06
2023-05-01T11:16:32.892Z,24.15
2023-05-01T11:17:32.831Z,24.34
2023-05-01T11:18:32.681Z,24.48
2023-05-01T11:19:32.661Z,24.60
2023-05-01T11:20:32.663Z,24.51
2023-05-01T11:21:32.655Z,24.44
2023-05-01T11:22:32.654Z,24.71
2023-05-01T11:23:32.622Z,25.04
2023-05-01T11:24:33.555Z,25.24
2023-05-01T11:25:32.603Z,25.63
2023-05-01T11:26:32.758Z,25.64
2023-05-01T11:27:32.692Z,25.39
2023-05-01T11:28:32.566Z,24.80
2023-05-01T11:29:32.540Z,24.64
2023-05-01T11:30:32.529Z,24.36
2023-05-01T11:31:32.577Z,24.09
2023-05-01T11:32:32.579Z,23.72
2023-05-01T11:33:32.511Z,23.18
2023-05-01T11:34:32.481Z,22.64
2023-05-01T11:35:32.463Z,22.36
2023-05-01T11:36:32.476Z,22.23
2023-05-01T11:37:32.476Z,22.11
2023-05-01T11:38:32.461Z,22.01
2023-05-01T11:39:32.408Z,21.83
2023-05-01T11:40:32.407Z,21.71
2023-05-01T11:41:32.398Z,21.63
2023-05-01T11:42:32.485Z,21.61
2023-05-01T11:43:32.367Z,21.51
2023-05-01T11:44:32.336Z,21.43
2023-05-01T11:45:32.403Z,21.45
2023-05-01T11:46:32.353Z,21.45
2023-05-01T11:47:32.409Z,21.59
2023-05-01T11:48:32.312Z,21.59
2023-05-01T11:49:32.279Z,21.58
2023-05-01T11:50:32.468Z,21.89
2023-05-01T11:51:32.256Z,22.01
2023-05-01T11:52:32.272Z,22.12
2023-05-01T11:53:32.270Z,22.05
2023-05-01T11:54:32.220Z,22.05
2023-05-01T11:55:32.188Z,22.05
2023-05-01T11:56:32.224Z,22.08
2023-05-01T11:57:32.200Z,22.12
2023-05-01T11:58:32.191Z,22.09
2023-05-01T11:59:32.195Z,22.12
2023-05-01T12:00:32.136Z,22.19
2023-05-01T12:01:32.119Z,22.39
2023-05-01T12:02:32.301Z,22.46
2023-05-01T12:03:32.297Z,22.59
2023-05-01T12:04:32.637Z,22.76
2023-05-01T12:05:32.103Z,22.81
2023-05-01T12:06:32.106Z,22.82
2023-05-01T12:07:32.085Z,22.78
2023-05-01T12:08:32.037Z,22.76
2023-05-01T12:09:32.017Z,22.82
2023-05-01T12:10:34.055Z,22.76
2023-05-01T12:11:31.982Z,22.81
2023-05-01T12:12:32.017Z,22.82
2023-05-01T12:13:31.962Z,22.74
2023-05-01T12:14:31.962Z,22.64
2023-05-01T12:15:31.932Z,22.61
2023-05-01T12:16:32.810Z,22.45
2023-05-01T12:17:31.982Z,22.23
2023-05-01T12:18:31.911Z,22.05
2023-05-01T12:19:31.887Z,21.93
2023-05-01T12:20:31.897Z,21.81
2023-05-01T12:21:31.869Z,21.70
2023-05-01T12:22:31.871Z,21.68
2023-05-01T12:23:31.831Z,21.83
2023-05-01T12:24:31.831Z,21.74
2023-05-01T12:25:31.801Z,21.85
2023-05-01T12:26:31.790Z,22.02
2023-05-01T12:27:31.779Z,22.11
2023-05-01T12:28:31.790Z,22.21
2023-05-01T12:29:31.744Z,22.20
2023-05-01T12:30:31.753Z,22.27
2023-05-01T12:31:31.764Z,22.44
2023-05-01T12:32:31.761Z,22.69
2023-05-01T12:33:31.749Z,22.91
2023-05-01T12:34:31.700Z,23.01
2023-05-01T12:35:31.674Z,23.12
2023-05-01T12:36:31.688Z,23.34
2023-05-01T12:37:31.639Z,23.63
2023-05-01T12:38:31.661Z,23.72
2023-05-01T12:39:31.621Z,23.56
2023-05-01T12:40:31.607Z,23.67
2023-05-01T12:41:31.640Z,23.87
2023-05-01T12:42:31.597Z,23.75
2023-05-01T12:43:31.604Z,23.54
2023-05-01T12:44:31.556Z,23.38
2023-05-01T12:45:31.537Z,23.15
2023-05-01T12:46:31.589Z,23.06
2023-05-01T12:47:31.830Z,22.97
2023-05-01T12:48:31.560Z,22.91
2023-05-01T12:49:31.504Z,23.00
2023-05-01T12:50:32.132Z,22.93
2023-05-01T12:51:31.461Z,22.93
2023-05-01T12:52:34.846Z,22.93
2023-05-01T12:53:31.460Z,22.84
2023-05-01T12:54:31.423Z,22.79
2023-05-01T12:55:31.399Z,22.60
2023-05-01T12:56:31.385Z,22.46
2023-05-01T12:57:31.376Z,22.78
2023-05-01T12:58:31.392Z,22.81
2023-05-01T12:59:31.576Z,23.00
2023-05-01T13:00:31.344Z,23.37
2023-05-01T13:01:31.330Z,23.63
2023-05-01T13:02:31.363Z,23.81
2023-05-01T13:03:31.364Z,23.68
2023-05-01T13:04:31.379Z,23.45
2023-05-01T13:05:31.404Z,23.07
2023-05-01T13:06:31.297Z,22.67